Time;durP1;ratioP1;P1;durP2;ratioP2;P2;SDS_P1;SDS_P2;PMS_P1;PMS_P2;Temp;Humidity;BMP_temperature;BMP_pressure;BME280_temperature;BME280_humidity;BME280_pressure;Samples;Min_cycle;Max_cycle;Signal;HPM_P1;HPM_P2
2021/09/30 00:00:00;;;;;;;16.95;8.30;;;;;;;13.27;100.00;98338.50;5055236;28;20032;-77
2021/09/30 00:02:25;;;;;;;21.88;9.02;;;;;;;13.35;100.00;98341.56;5055545;28;20039;-76
2021/09/30 00:04:51;;;;;;;18.88;8.80;;;;;;;13.31;100.00;98339.19;5072142;28;20028;-77
2021/09/30 00:07:16;;;;;;;18.95;7.70;;;;;;;13.43;100.00;98342.00;5071859;28;20040;-77
2021/09/30 00:09:45;;;;;;;19.95;8.70;;;;;;;13.45;100.00;98348.13;5073369;28;20029;-76
2021/09/30 00:12:20;;;;;;;18.17;7.53;;;;;;;13.41;100.00;98348.44;5071707;28;20025;-76
2021/09/30 00:40:00;;;;;;;22.60;7.32;;;;;;;13.22;100.00;98334.38;5071261;28;20550;-77
2021/09/30 00:47:46;;;;;;;17.73;7.95;;;;;;;13.11;100.00;98332.31;5071039;28;20039;-76
2021/09/30 00:50:27;;;;;;;17.38;7.82;;;;;;;13.27;100.00;98327.75;5072180;28;20048;-77
2021/09/30 03:00:27;;;;;;;29.95;11.40;;;;;;;13.28;100.00;98332.19;5093815;28;20567;-77
2021/09/30 03:02:53;;;;;;;23.35;9.85;;;;;;;13.28;100.00;98328.63;5093367;28;20483;-76
2021/09/30 03:05:21;;;;;;;22.38;10.50;;;;;;;13.22;100.00;98318.25;5076496;28;20514;-77
2021/09/30 03:07:49;;;;;;;21.48;10.30;;;;;;;13.33;100.00;98331.88;5093285;28;20494;-77
2021/09/30 03:10:15;;;;;;;22.80;11.38;;;;;;;13.36;100.00;98332.56;5093131;28;20020;-77
2021/09/30 03:12:40;;;;;;;21.27;10.48;;;;;;;13.36;100.00;98331.69;5093794;28;20026;-77
2021/09/30 03:17:56;;;;;;;28.50;11.48;;;;;;;13.31;100.00;98340.06;5093185;28;20067;-76
2021/09/30 03:23:13;;;;;;;20.25;11.02;;;;;;;13.37;100.00;98347.75;5093405;28;20131;-75
2021/09/30 03:25:41;;;;;;;23.15;10.55;;;;;;;13.31;100.00;98339.19;5093028;28;20099;-77
2021/09/30 03:28:08;;;;;;;22.50;10.85;;;;;;;13.31;100.00;98339.19;5076217;28;20085;-76
2021/09/30 03:30:34;;;;;;;21.63;10.68;;;;;;;13.32;100.00;98351.66;5093059;28;20020;-76
2021/09/30 03:33:03;;;;;;;27.42;11.13;;;;;;;13.37;100.00;98347.75;5081771;28;20054;-76
2021/09/30 03:35:29;;;;;;;31.25;11.40;;;;;;;13.40;100.00;98350.25;5071049;28;20032;-77
2021/09/30 03:37:54;;;;;;;26.25;11.40;;;;;;;13.37;100.00;98334.31;5092394;28;20020;-76
2021/09/30 03:40:20;;;;;;;23.02;11.52;;;;;;;13.34;100.00;98339.88;5089192;28;20033;-77
2021/09/30 03:42:46;;;;;;;37.95;12.65;;;;;;;13.24;100.00;98338.69;5072056;28;20039;-76
2021/09/30 03:45:11;;;;;;;24.67;11.63;;;;;;;13.24;100.00;98340.50;5055393;28;20416;-77
2021/09/30 03:47:37;;;;;;;27.75;12.13;;;;;;;13.31;100.00;98333.81;5074110;28;20369;-77
2021/09/30 03:53:37;;;;;;;18.08;8.93;;;;;;;13.32;100.00;98338.25;5074101;28;20054;-76
2021/09/30 04:01:37;;;;;;;22.83;9.90;;;;;;;13.37;100.00;98350.44;5073567;28;20093;-74
2021/09/30 04:04:02;;;;;;;23.23;10.18;;;;;;;13.39;100.00;98343.13;5071938;28;20036;-77
2021/09/30 04:06:28;;;;;;;22.17;11.30;;;;;;;13.36;100.00;98329.88;5073350;28;20032;-77
2021/09/30 04:08:56;;;;;;;26.88;11.68;;;;;;;13.37;100.00;98334.31;5071982;28;20024;-77
2021/09/30 04:11:22;;;;;;;17.85;10.10;;;;;;;13.46;100.00;98341.81;5073127;28;20515;-76
2021/09/30 04:13:47;;;;;;;27.05;9.73;;;;;;;13.35;100.00;98338.06;5073270;28;20029;-77
2021/09/30 04:16:13;;;;;;;28.80;11.27;;;;;;;13.31;100.00;98340.06;5071615;28;20032;-77
2021/09/30 04:18:38;;;;;;;28.08;14.15;;;;;;;13.33;100.00;98340.81;5055109;28;20503;-77
2021/09/30 04:21:04;;;;;;;23.35;12.07;;;;;;;13.34;100.00;98350.63;5063233;28;20112;-77
2021/09/30 04:23:29;;;;;;;27.52;12.80;;;;;;;13.35;100.00;98338.88;5092041;28;20024;-77
2021/09/30 04:25:55;;;;;;;29.13;12.38;;;;;;;13.18;100.00;98333.69;5091674;28;20078;-77
2021/09/30 04:28:21;;;;;;;24.50;11.00;;;;;;;13.30;100.00;98346.38;5092472;28;20031;-78
2021/09/30 04:30:46;;;;;;;28.35;11.30;;;;;;;13.34;100.00;98334.50;5094963;28;20048;-76
2021/09/30 04:33:12;;;;;;;20.75;9.93;;;;;;;13.43;100.00;98342.00;5095098;28;20043;-77
2021/09/30 04:35:37;;;;;;;22.50;10.05;;;;;;;13.42;100.00;98342.94;5075538;28;20415;-78
2021/09/30 04:38:07;;;;;;;21.58;9.95;;;;;;;13.38;100.00;98338.69;5095541;28;20108;-77
2021/09/30 04:40:33;;;;;;;23.15;10.57;;;;;;;13.35;100.00;98343.44;5078657;28;20021;-77
2021/09/30 04:42:58;;;;;;;36.92;13.57;;;;;;;13.45;100.00;98355.31;5071374;28;20026;-77
2021/09/30 04:45:24;;;;;;;24.63;11.27;;;;;;;13.48;100.00;98352.44;5091615;28;20051;-76
2021/09/30 04:47:50;;;;;;;20.83;9.65;;;;;;;13.47;100.00;98348.06;5093071;28;20031;-76
2021/09/30 04:50:15;;;;;;;21.50;9.52;;;;;;;13.53;100.00;98350.38;5091697;28;20557;-76
2021/09/30 04:52:41;;;;;;;32.15;14.90;;;;;;;13.49;100.00;98344.31;5093235;28;20077;-76
2021/09/30 04:55:06;;;;;;;41.35;21.90;;;;;;;13.65;100.00;98363.06;5092668;28;20047;-77
2021/09/30 04:57:32;;;;;;;24.67;10.57;;;;;;;13.61;100.00;98364.19;5091028;28;20020;-76
2021/09/30 04:59:58;;;;;;;24.50;10.32;;;;;;;13.65;100.00;98352.31;5092472;28;20023;-77
2021/09/30 05:02:23;;;;;;;27.00;12.25;;;;;;;13.71;100.00;98359.13;5091140;28;20027;-76
2021/09/30 05:04:49;;;;;;;29.98;11.27;;;;;;;13.74;100.00;98364.31;5091187;28;20024;-76
2021/09/30 05:07:14;;;;;;;25.10;11.63;;;;;;;13.75;100.00;98350.75;5091260;28;20441;-77
2021/09/30 05:09:40;;;;;;;30.98;17.63;;;;;;;13.68;100.00;98353.94;5092308;28;20034;-77
2021/09/30 05:12:08;;;;;;;23.15;10.73;;;;;;;13.68;100.00;98348.56;5091151;28;20020;-77
2021/09/30 05:14:33;;;;;;;21.00;9.93;;;;;;;13.74;100.00;98357.13;5092251;28;20097;-76
2021/09/30 05:16:59;;;;;;;20.52;9.77;;;;;;;13.74;100.00;98364.31;5091205;28;20050;-76
2021/09/30 05:19:25;;;;;;;21.40;9.85;;;;;;;13.74;100.00;98367.00;5090981;28;20028;-77
2021/09/30 05:21:50;;;;;;;32.10;10.18;;;;;;;13.69;100.00;98366.44;5073854;28;20023;-77
2021/09/30 05:24:16;;;;;;;22.33;9.50;;;;;;;13.74;100.00;98370.56;5090908;28;20031;-76
2021/09/30 05:26:42;;;;;;;31.55;9.93;;;;;;;13.68;100.00;98368.25;5091855;28;20406;-77
2021/09/30 05:29:08;;;;;;;22.17;10.40;;;;;;;13.75;100.00;98377.66;5091096;28;20399;-76
2021/09/30 05:31:37;;;;;;;26.00;13.15;;;;;;;13.79;100.00;98378.31;5074099;28;20414;-76
2021/09/30 05:34:03;;;;;;;26.80;13.65;;;;;;;13.82;100.00;98386.22;5073691;28;20051;-76
2021/09/30 05:36:28;;;;;;;27.02;11.10;;;;;;;13.85;100.00;98380.63;5090685;28;20028;-76
2021/09/30 05:38:54;;;;;;;26.95;11.00;;;;;;;13.80;100.00;98380.06;5073415;28;20109;-76
2021/09/30 05:41:20;;;;;;;26.30;12.48;;;;;;;13.92;100.00;98390.06;5090697;28;20491;-76
2021/09/30 05:43:51;;;;;;;29.98;10.45;;;;;;;13.87;100.00;98381.44;5091895;28;20031;-76
2021/09/30 05:46:19;;;;;;;30.90;12.40;;;;;;;13.89;100.00;98395.63;5090815;28;20034;-77
2021/09/30 05:48:44;;;;;;;27.05;11.23;;;;;;;13.87;100.00;98379.56;5091917;28;20020;-76
2021/09/30 05:51:10;;;;;;;32.65;13.07;;;;;;;13.95;100.00;98387.19;5073649;28;20024;-76
2021/09/30 05:53:36;;;;;;;30.58;12.60;;;;;;;13.92;100.00;98380.19;5083850;28;20035;-76
2021/09/30 05:56:02;;;;;;;32.80;12.68;;;;;;;13.80;100.00;98369.31;5070235;28;20032;-76
2021/09/30 05:58:28;;;;;;;25.70;12.20;;;;;;;13.94;100.00;98398.91;5070519;28;20491;-77
2021/09/30 06:11:51;;;;;;;21.38;10.38;;;;;;;13.88;100.00;98384.00;5070921;28;20021;-76
2021/09/30 06:14:22;;;;;;;22.92;10.30;;;;;;;14.00;100.00;98391.31;5070730;28;20036;-77
2021/09/30 06:16:50;;;;;;;28.92;11.38;;;;;;;14.04;100.00;98389.31;5070528;28;20503;-76
2021/09/30 06:19:22;;;;;;;25.30;12.27;;;;;;;14.12;100.00;98386.97;5070045;28;20032;-77
2021/09/30 06:21:49;;;;;;;35.95;14.52;;;;;;;14.12;100.00;98401.31;5070425;28;20416;-77
2021/09/30 06:24:19;;;;;;;36.05;12.90;;;;;;;14.11;100.00;98402.28;5070018;28;21635;-77
2021/09/30 06:26:45;;;;;;;25.60;12.95;;;;;;;14.07;100.00;98398.06;5070386;28;20029;-78
2021/09/30 06:29:11;;;;;;;33.53;13.88;;;;;;;14.17;100.00;98403.72;5069970;28;20035;-76
2021/09/30 06:31:37;;;;;;;45.22;13.65;;;;;;;14.17;100.00;98395.66;5071248;28;20104;-77
2021/09/30 06:34:02;;;;;;;23.92;11.88;;;;;;;13.99;100.00;98416.50;5070039;28;20048;-77
2021/09/30 06:36:28;;;;;;;27.00;11.15;;;;;;;13.92;100.00;98416.97;5070285;28;20056;-77
2021/09/30 06:38:54;;;;;;;24.27;11.45;;;;;;;13.71;100.00;98413.78;5063982;28;20057;-76
2021/09/30 06:41:22;;;;;;;30.27;13.48;;;;;;;13.69;100.00;98414.81;5066380;28;20147;-76
2021/09/30 06:43:47;;;;;;;30.30;12.98;;;;;;;13.68;100.00;98423.84;5090674;28;20024;-74
2021/09/30 06:46:15;;;;;;;29.23;12.50;;;;;;;13.82;100.00;98419.34;5091872;28;20414;-76
2021/09/30 06:48:41;;;;;;;24.15;11.50;;;;;;;13.95;100.00;98411.41;5093975;28;20016;-75
2021/09/30 06:51:06;;;;;;;19.40;10.35;;;;;;;14.06;100.00;98411.59;5076767;28;20031;-76
2021/09/30 06:53:32;;;;;;;18.15;10.18;;;;;;;14.11;100.00;98439.09;5076918;28;20050;-76
2021/09/30 06:56:05;;;;;;;20.95;10.10;;;;;;;14.11;100.00;98429.19;5076607;28;20581;-76
2021/09/30 06:58:31;;;;;;;18.25;10.02;;;;;;;14.25;100.00;98433.69;5077553;28;20085;-76
2021/09/30 07:00:57;;;;;;;20.85;10.48;;;;;;;14.14;100.00;98425.44;5093479;28;20028;-75
2021/09/30 07:03:27;;;;;;;24.50;10.88;;;;;;;14.28;100.00;98430.81;5076312;28;20028;-76
2021/09/30 07:05:53;;;;;;;24.15;10.55;;;;;;;14.38;100.00;98415.88;5076286;28;20032;-75
2021/09/30 07:08:20;;;;;;;23.23;11.60;;;;;;;14.49;100.00;98416.03;5093083;28;20088;-76
2021/09/30 07:10:47;;;;;;;24.50;9.82;;;;;;;14.56;100.00;98430.84;5076661;28;20065;-76
2021/09/30 07:13:12;;;;;;;18.17;10.23;;;;;;;14.69;100.00;98421.97;5094257;28;20020;-76
2021/09/30 07:15:38;;;;;;;13.45;9.13;;;;;;;14.67;100.00;98432.00;5076137;28;20027;-76
2021/09/30 07:18:41;;;;;;;17.00;8.80;;;;;;;14.65;100.00;98435.63;5076092;28;20023;-76
2021/09/30 07:21:07;;;;;;;13.55;8.80;;;;;;;14.77;100.00;98427.72;5094307;28;20540;-76
2021/09/30 07:23:33;;;;;;;17.20;9.13;;;;;;;14.68;100.00;98431.00;5094484;28;20028;-77
2021/09/30 07:25:59;;;;;;;16.08;8.70;;;;;;;14.69;100.00;98430.94;5092913;28;20016;-77
2021/09/30 07:28:26;;;;;;;15.68;8.57;;;;;;;14.72;100.00;98435.25;5092969;28;20123;-76
2021/09/30 07:30:52;;;;;;;18.58;9.02;;;;;;;14.88;100.00;98430.59;5092894;28;20020;-76
2021/09/30 07:33:19;;;;;;;14.27;7.80;;;;;;;14.86;100.00;98428.00;5094287;28;20036;-76
2021/09/30 07:35:45;;;;;;;16.88;8.13;;;;;;;14.88;100.00;98425.22;5094095;28;20028;-77
2021/09/30 07:38:10;;;;;;;14.35;8.10;;;;;;;14.83;100.00;98430.88;5092616;28;20038;-76
2021/09/30 07:40:36;;;;;;;17.90;11.02;;;;;;;14.87;100.00;98423.47;5093903;28;20048;-76
2021/09/30 07:43:03;;;;;;;14.18;8.00;;;;;;;15.11;100.00;98421.84;5094104;28;20020;-76
2021/09/30 07:45:28;;;;;;;18.02;8.30;;;;;;;15.44;100.00;98429.56;5092724;28;20426;-76
2021/09/30 07:47:54;;;;;;;19.15;7.22;;;;;;;15.54;100.00;98439.63;5092307;28;20023;-76
2021/09/30 07:50:19;;;;;;;14.40;8.68;;;;;;;15.46;100.00;98379.94;5093778;28;20032;-75
2021/09/30 07:52:45;;;;;;;18.45;8.35;;;;;;;15.97;100.00;98424.06;5076706;28;20033;-78
2021/09/30 07:55:11;;;;;;;13.75;7.15;;;;;;;16.01;100.00;98430.97;5072051;28;20059;-74
2021/09/30 07:57:37;;;;;;;14.60;9.20;;;;;;;15.95;100.00;98430.53;5073397;28;20415;-75
2021/09/30 08:00:05;;;;;;;14.98;8.25;;;;;;;16.27;99.74;98427.28;5072099;28;20040;-75
2021/09/30 08:02:30;;;;;;;16.73;8.55;;;;;;;16.21;97.46;98379.13;5073197;28;20064;-76
2021/09/30 08:04:56;;;;;;;15.88;9.20;;;;;;;16.62;96.61;98437.44;5071977;28;20121;-75
2021/09/30 08:07:21;;;;;;;15.73;8.57;;;;;;;16.71;94.01;98397.13;5073222;28;20082;-75
2021/09/30 08:09:47;;;;;;;24.08;8.70;;;;;;;16.94;90.83;98383.75;5072119;28;20456;-77
2021/09/30 08:12:13;;;;;;;15.90;8.73;;;;;;;17.37;89.16;98439.06;5089277;28;20032;-76
2021/09/30 08:14:38;;;;;;;12.55;7.15;;;;;;;17.12;86.89;98382.38;5075414;28;20416;-76
2021/09/30 08:17:04;;;;;;;16.33;8.10;;;;;;;18.15;84.45;98444.81;5093188;28;20039;-76
2021/09/30 08:19:30;;;;;;;10.63;7.63;;;;;;;17.78;82.34;98404.31;5093352;28;20459;-76
2021/09/30 08:21:56;;;;;;;15.90;7.45;;;;;;;18.23;82.07;98436.94;5091965;28;20032;-76
2021/09/30 08:24:22;;;;;;;16.95;7.80;;;;;;;17.74;82.20;98434.47;5091740;28;20411;-76
2021/09/30 08:26:48;;;;;;;13.77;7.68;;;;;;;17.43;83.12;98397.16;5075120;28;20085;-75
2021/09/30 08:29:15;;;;;;;10.63;7.00;;;;;;;17.78;81.11;98447.63;5091139;28;20474;-76
2021/09/30 08:31:42;;;;;;;9.18;6.50;;;;;;;17.72;81.08;98450.81;5071730;28;20020;-76
2021/09/30 08:34:07;;;;;;;18.50;7.40;;;;;;;17.90;81.09;98442.28;5071665;28;20032;-76
2021/09/30 08:36:34;;;;;;;12.75;6.95;;;;;;;17.99;80.87;98449.69;5071618;28;20487;-76
2021/09/30 08:38:59;;;;;;;42.25;7.82;;;;;;;18.17;79.96;98442.84;5087234;28;20070;-76
2021/09/30 08:41:25;;;;;;;15.43;6.60;;;;;;;18.40;78.53;98447.28;5074441;28;20052;-75
2021/09/30 08:43:51;;;;;;;14.77;7.07;;;;;;;18.15;78.09;98418.56;5093043;28;20023;-75
2021/09/30 08:46:19;;;;;;;12.13;7.03;;;;;;;18.18;78.72;98429.16;5092946;28;20124;-75
2021/09/30 08:48:47;;;;;;;16.65;7.82;;;;;;;18.12;81.18;98436.94;5092962;28;20057;-76
2021/09/30 08:51:14;;;;;;;11.13;7.15;;;;;;;17.88;81.43;98432.41;5093184;28;20027;-77
2021/09/30 08:53:40;;;;;;;15.35;7.55;;;;;;;17.75;80.06;98409.97;5092917;28;20072;-76
2021/09/30 08:56:07;;;;;;;9.52;6.78;;;;;;;18.00;78.79;98430.59;5091442;28;20110;-77
2021/09/30 08:58:39;;;;;;;17.27;6.80;;;;;;;17.92;78.51;98426.75;5091353;28;20020;-75
2021/09/30 09:01:07;;;;;;;11.73;8.07;;;;;;;17.61;78.92;98380.41;5092800;28;20028;-75
2021/09/30 09:03:42;;;;;;;16.27;8.18;;;;;;;17.93;79.87;98434.78;5054333;28;20546;-76
2021/09/30 09:06:10;;;;;;;14.70;9.18;;;;;;;17.76;80.09;98406.31;5071853;28;20185;-76
2021/09/30 09:08:36;;;;;;;25.13;12.35;;;;;;;17.91;82.02;98427.72;5071239;28;20112;-76
2021/09/30 09:11:05;;;;;;;17.73;9.52;;;;;;;17.57;81.49;98389.75;5071846;28;20454;-75
2021/09/30 09:13:31;;;;;;;17.52;8.75;;;;;;;17.90;81.47;98435.03;5071583;28;20427;-75
2021/09/30 09:15:59;;;;;;;12.75;9.25;;;;;;;17.78;81.80;98427.84;5070216;28;20543;-75
2021/09/30 09:18:28;;;;;;;12.35;8.68;;;;;;;17.75;81.85;98434.34;5072375;28;20023;-76
2021/09/30 09:24:16;;;;;;;14.25;9.20;;;;;;;17.79;82.23;98426.84;5072435;28;20034;-76
2021/09/30 09:26:42;;;;;;;21.33;10.55;;;;;;;17.73;81.91;98379.47;5072106;28;20016;-77
2021/09/30 09:29:19;;;;;;;20.50;12.23;;;;;;;17.84;81.26;98376.78;5073040;28;20019;-76
2021/09/30 09:31:48;;;;;;;13.50;8.10;;;;;;;18.21;80.16;98425.38;5072130;28;20035;-76
2021/09/30 09:34:39;;;;;;;12.43;8.80;;;;;;;18.30;79.72;98420.06;5071614;28;20024;-76
2021/09/30 09:37:32;;;;;;;12.63;8.80;;;;;;;18.43;78.14;98422.66;5054518;28;20481;-76
2021/09/30 09:39:59;;;;;;;9.98;7.55;;;;;;;18.56;77.21;98422.56;5070671;28;20123;-76
2021/09/30 09:42:31;;;;;;;9.80;7.32;;;;;;;18.82;75.38;98433.06;5053522;28;20543;-76
2021/09/30 09:45:02;;;;;;;11.63;7.05;;;;;;;18.92;74.81;98420.47;5053679;28;20040;-76
2021/09/30 09:47:36;;;;;;;32.10;21.70;;;;;;;19.37;73.49;98426.66;5071064;28;20028;-75
2021/09/30 09:50:24;;;;;;;18.40;11.23;;;;;;;19.83;70.10;98426.38;5071491;28;20270;-75
2021/09/30 09:52:52;;;;;;;17.85;8.98;;;;;;;20.43;67.58;98427.50;5071490;28;20085;-76
2021/09/30 09:55:22;;;;;;;10.40;6.47;;;;;;;20.65;65.78;98424.63;5070465;28;20438;-75
2021/09/30 09:58:03;;;;;;;12.40;7.32;;;;;;;20.28;67.56;98434.28;5071089;28;20025;-76
2021/09/30 10:00:30;;;;;;;11.23;6.57;;;;;;;20.21;65.87;98424.94;5088117;28;20505;-75
2021/09/30 10:02:56;;;;;;;7.97;5.97;;;;;;;19.48;68.23;98423.94;5092194;28;20038;-75
2021/09/30 10:05:22;;;;;;;15.10;6.90;;;;;;;19.38;69.42;98432.97;5074580;28;20036;-76
2021/09/30 10:07:47;;;;;;;8.00;5.20;;;;;;;18.98;69.98;98420.97;5092121;28;20020;-76
2021/09/30 10:10:15;;;;;;;14.55;8.27;;;;;;;18.86;71.63;98423.66;5094726;28;20046;-75
2021/09/30 10:12:42;;;;;;;14.18;7.32;;;;;;;18.91;70.08;98424.19;5057637;28;20419;-76
2021/09/30 10:15:09;;;;;;;13.90;6.25;;;;;;;18.77;70.79;98421.72;5073454;28;20040;-76
2021/09/30 10:17:37;;;;;;;9.65;5.97;;;;;;;18.76;71.31;98424.56;5077644;28;20020;-77
2021/09/30 10:20:03;;;;;;;24.42;13.13;;;;;;;18.59;72.07;98417.78;5072496;28;20024;-76
2021/09/30 10:22:29;;;;;;;10.60;7.75;;;;;;;18.45;73.51;98415.28;5074512;28;20025;-77
2021/09/30 10:24:56;;;;;;;15.68;6.72;;;;;;;18.56;72.53;98401.75;5075267;28;20512;-76
2021/09/30 10:27:22;;;;;;;16.80;7.57;;;;;;;18.67;72.52;98426.13;5057384;28;20111;-76
2021/09/30 10:30:03;;;;;;;12.50;7.75;;;;;;;18.82;72.14;98413.22;5074227;28;20154;-76
2021/09/30 10:32:29;;;;;;;11.85;6.60;;;;;;;18.83;71.89;98417.63;5074665;28;20028;-76
2021/09/30 10:35:00;;;;;;;11.70;6.05;;;;;;;18.94;70.50;98423.94;5075377;28;20530;-75
2021/09/30 10:37:31;;;;;;;10.05;7.20;;;;;;;18.75;71.12;98407.44;5073891;28;20082;-75
2021/09/30 10:40:16;;;;;;;12.85;7.03;;;;;;;18.72;70.52;98418.53;5056790;28;20141;-77
2021/09/30 10:42:55;;;;;;;14.18;7.50;;;;;;;18.43;73.05;98418.09;5073656;28;20031;-76
2021/09/30 10:45:26;;;;;;;10.00;6.90;;;;;;;18.28;74.21;98416.63;5074093;28;20029;-76
2021/09/30 10:47:53;;;;;;;14.40;7.47;;;;;;;18.27;74.72;98417.59;5057189;28;20029;-76
2021/09/30 10:50:19;;;;;;;14.15;8.27;;;;;;;18.18;73.87;98418.31;5074971;28;20111;-75
2021/09/30 10:52:55;;;;;;;15.52;8.18;;;;;;;18.05;75.71;98411.31;5073102;28;20502;-75
2021/09/30 10:55:26;;;;;;;15.02;7.90;;;;;;;17.91;76.36;98400.66;5073200;28;20029;-76
2021/09/30 10:57:57;;;;;;;8.90;7.20;;;;;;;17.87;73.43;98413.59;5072915;28;20115;-76
2021/09/30 11:00:23;;;;;;;15.48;8.90;;;;;;;17.82;73.68;98416.66;5056515;28;20127;-76
2021/09/30 11:03:09;;;;;;;21.23;9.07;;;;;;;17.72;75.18;98412.91;5073791;28;20193;-76
2021/09/30 11:05:36;;;;;;;14.40;9.63;;;;;;;17.72;75.19;98414.75;5074001;28;20415;-76
2021/09/30 11:08:18;;;;;;;15.77;9.98;;;;;;;17.54;78.66;98405.31;5072911;28;20016;-76
2021/09/30 11:11:02;;;;;;;18.20;9.60;;;;;;;17.48;76.93;98406.66;5073721;28;20021;-75
2021/09/30 11:13:39;;;;;;;14.13;9.00;;;;;;;17.44;78.60;98409.72;5072677;28;20047;-76
2021/09/30 11:16:07;;;;;;;11.02;7.07;;;;;;;17.30;77.77;98405.34;5056385;28;20473;-76
2021/09/30 11:18:52;;;;;;;10.50;7.93;;;;;;;17.25;77.55;98404.84;5072754;28;20124;-76
2021/09/30 11:24:26;;;;;;;12.43;8.43;;;;;;;17.19;78.50;98406.16;5075228;28;20102;-75
2021/09/30 11:26:51;;;;;;;16.38;7.80;;;;;;;16.95;85.11;98396.31;5072399;28;20036;-76
2021/09/30 11:29:23;;;;;;;10.75;7.65;;;;;;;16.80;88.80;98399.16;5073195;28;20473;-76
2021/09/30 11:31:57;;;;;;;11.15;7.82;;;;;;;16.58;92.60;98400.84;5071858;28;20509;-76
2021/09/30 11:34:26;;;;;;;15.52;8.25;;;;;;;16.41;95.21;98384.94;5074062;28;20484;-76
2021/09/30 11:36:52;;;;;;;14.65;8.55;;;;;;;16.45;96.44;98397.25;5074978;28;20032;-76
2021/09/30 11:39:18;;;;;;;12.43;7.90;;;;;;;16.41;95.90;98374.16;5056379;28;20127;-76
2021/09/30 11:41:47;;;;;;;12.32;8.50;;;;;;;16.70;95.52;98398.09;5074375;28;20061;-76
2021/09/30 11:44:18;;;;;;;10.75;8.20;;;;;;;16.73;95.07;98397.03;5072886;28;20058;-76
2021/09/30 11:46:49;;;;;;;13.60;8.52;;;;;;;16.75;96.08;98395.06;5073075;28;20023;-75
2021/09/30 11:49:16;;;;;;;14.32;8.52;;;;;;;16.73;93.95;98387.06;5072465;28;20016;-76
2021/09/30 11:51:48;;;;;;;10.88;8.27;;;;;;;16.81;92.00;98394.63;5072764;28;20024;-75
2021/09/30 11:54:38;;;;;;;15.98;7.63;;;;;;;16.63;94.17;98390.56;5074528;28;20527;-75
2021/09/30 11:57:03;;;;;;;12.57;9.10;;;;;;;16.41;95.96;98380.41;5073712;28;20087;-76
2021/09/30 11:59:30;;;;;;;14.32;7.70;;;;;;;16.43;95.84;98385.69;5073154;28;20071;-75
2021/09/30 12:02:12;;;;;;;11.20;7.95;;;;;;;16.27;97.30;98396.75;5074213;28;20035;-76
2021/09/30 12:04:50;;;;;;;11.85;7.82;;;;;;;16.40;97.54;98392.19;5075317;28;20033;-75
2021/09/30 12:07:18;;;;;;;11.95;7.80;;;;;;;16.45;95.99;98391.88;5081230;28;20170;-75
2021/09/30 12:09:45;;;;;;;10.93;7.13;;;;;;;16.37;95.95;98389.69;5074233;28;20107;-76
2021/09/30 12:12:10;;;;;;;9.13;6.95;;;;;;;16.32;96.15;98380.22;5057335;28;20466;-75
2021/09/30 12:14:48;;;;;;;12.68;7.38;;;;;;;16.42;95.38;98387.56;5077334;28;20113;-75
2021/09/30 12:17:16;;;;;;;13.38;8.50;;;;;;;16.45;96.18;98387.34;5058665;28;20028;-75
2021/09/30 12:19:44;;;;;;;15.98;10.82;;;;;;;16.49;93.98;98382.56;5074792;28;20471;-75
2021/09/30 12:22:22;;;;;;;11.80;7.65;;;;;;;16.55;93.58;98388.41;5075464;28;20445;-75
2021/09/30 12:28:09;;;;;;;19.30;10.05;;;;;;;16.60;93.91;98385.38;5078770;28;20111;-77
2021/09/30 12:30:38;;;;;;;9.98;7.50;;;;;;;16.79;94.07;98389.34;5076850;28;20024;-77
2021/09/30 12:33:22;;;;;;;11.57;8.23;;;;;;;16.89;93.34;98383.25;5077357;28;20033;-77
2021/09/30 12:35:47;;;;;;;12.63;8.45;;;;;;;17.00;91.58;98384.19;5078342;28;20025;-77
2021/09/30 12:38:16;;;;;;;15.18;8.70;;;;;;;16.94;91.60;98367.53;5077500;28;20488;-77
2021/09/30 12:40:54;;;;;;;13.00;7.70;;;;;;;17.13;91.74;98390.41;5076234;28;20441;-77
2021/09/30 12:43:30;;;;;;;13.43;8.13;;;;;;;17.11;92.31;98378.81;5075507;28;20032;-77
2021/09/30 12:45:59;;;;;;;25.27;8.82;;;;;;;17.09;94.46;98388.03;5076312;28;20040;-77
2021/09/30 12:48:29;;;;;;;13.98;7.78;;;;;;;17.17;93.60;98374.78;5078537;28;20029;-76
2021/09/30 12:51:05;;;;;;;10.73;8.05;;;;;;;17.22;92.85;98383.44;5062276;28;20036;-77
2021/09/30 12:53:32;;;;;;;12.73;8.55;;;;;;;17.20;93.34;98369.13;5057067;28;20024;-76
2021/09/30 12:56:06;;;;;;;13.15;8.50;;;;;;;17.19;93.04;98378.25;5074372;28;20040;-77
2021/09/30 13:02:02;;;;;;;18.75;9.10;;;;;;;17.11;93.33;98369.84;5072915;28;20055;-77
2021/09/30 13:04:28;;;;;;;13.38;8.00;;;;;;;17.04;93.76;98368.59;5072745;28;20111;-77
2021/09/30 13:06:56;;;;;;;13.50;8.10;;;;;;;17.02;94.11;98375.94;5072683;28;20074;-76
2021/09/30 13:09:30;;;;;;;13.52;8.05;;;;;;;16.95;95.33;98380.09;5079786;28;20028;-76
2021/09/30 13:12:12;;;;;;;20.10;8.77;;;;;;;16.94;95.30;98373.81;5093358;28;20020;-76
2021/09/30 13:14:54;;;;;;;11.93;8.30;;;;;;;16.94;94.90;98376.53;5077499;28;20031;-76
2021/09/30 13:17:27;;;;;;;19.63;9.15;;;;;;;16.92;94.95;98374.91;5094742;28;20052;-76
2021/09/30 13:19:59;;;;;;;12.23;8.40;;;;;;;17.00;95.42;98375.19;5092973;28;20028;-77
2021/09/30 13:22:29;;;;;;;;;;;;;;;17.08;95.05;98378.19;5095369;28;20028;-76
2021/09/30 13:24:56;;;;;;;32.47;20.17;;;;;;;17.17;95.02;98372.94;5095382;28;19908;-76
2021/09/30 13:27:27;;;;;;;18.58;11.52;;;;;;;17.27;93.95;98359.59;5089466;28;20553;-75
2021/09/30 13:29:53;;;;;;;15.45;9.70;;;;;;;17.44;93.41;98377.25;5089645;28;20057;-75
2021/09/30 13:32:19;;;;;;;18.15;9.45;;;;;;;17.48;93.09;98366.06;5090863;28;20430;-76
2021/09/30 13:34:45;;;;;;;18.83;10.40;;;;;;;17.50;91.64;98356.00;5091884;28;20035;-76
2021/09/30 13:37:11;;;;;;;19.20;11.43;;;;;;;17.56;89.79;98360.97;5073664;28;20024;-75
2021/09/30 13:39:37;;;;;;;24.63;9.90;;;;;;;17.47;88.31;98355.38;5090999;28;20127;-75
2021/09/30 13:42:03;;;;;;;27.15;17.98;;;;;;;17.57;88.08;98353.69;5089884;28;20036;-76
2021/09/30 13:44:28;;;;;;;22.45;9.95;;;;;;;17.57;87.76;98345.59;5072359;28;20518;-76
2021/09/30 13:46:54;;;;;;;23.67;10.00;;;;;;;17.70;87.04;98352.66;5073321;28;20420;-76
2021/09/30 13:49:19;;;;;;;21.75;11.38;;;;;;;17.61;86.10;98347.09;5090952;28;20047;-78
2021/09/30 13:51:45;;;;;;;19.10;9.15;;;;;;;17.55;88.59;98359.25;5089591;28;20031;-77
2021/09/30 13:54:10;;;;;;;15.93;8.88;;;;;;;17.60;87.08;98353.47;5089511;28;20031;-76
2021/09/30 13:56:36;;;;;;;16.35;9.02;;;;;;;17.68;86.76;98351.91;5093387;28;20459;-76
2021/09/30 13:59:02;;;;;;;15.32;9.05;;;;;;;17.78;85.46;98355.59;5095821;28;20032;-76
2021/09/30 14:01:28;;;;;;;34.58;18.95;;;;;;;17.63;86.59;98342.41;5078461;28;20039;-76
2021/09/30 14:03:54;;;;;;;41.17;29.02;;;;;;;17.66;85.73;98348.44;5077902;28;20036;-76
2021/09/30 14:06:21;;;;;;;17.52;10.48;;;;;;;17.54;86.51;98337.66;5095864;28;20020;-77
2021/09/30 14:08:49;;;;;;;24.45;14.77;;;;;;;17.58;88.12;98350.03;5098532;28;20027;-77
2021/09/30 14:11:15;;;;;;;19.25;12.02;;;;;;;17.60;88.99;98350.75;5085299;28;20042;-76
2021/09/30 14:13:42;;;;;;;21.33;14.32;;;;;;;17.53;89.30;98335.97;5100354;28;20088;-76
2021/09/30 14:16:08;;;;;;;35.63;21.02;;;;;;;17.52;90.04;98337.81;5079669;28;20024;-75
2021/09/30 14:18:35;;;;;;;23.58;12.45;;;;;;;17.48;90.52;98343.56;5096037;28;20042;-76
2021/09/30 14:21:00;;;;;;;41.00;18.65;;;;;;;17.37;91.07;98347.09;5083775;28;20024;-77
2021/09/30 14:23:26;;;;;;;85.30;45.25;;;;;;;17.15;92.61;98341.59;5089542;28;20108;-76
2021/09/30 14:25:53;;;;;;;26.45;15.48;;;;;;;17.13;93.19;98351.69;5093606;28;20035;-75
2021/09/30 14:28:18;;;;;;;24.27;13.35;;;;;;;16.99;93.67;98332.91;5095405;28;20040;-76
2021/09/30 14:30:44;;;;;;;13.00;8.70;;;;;;;16.95;93.94;98348.50;5078475;28;20016;-76
2021/09/30 14:33:10;;;;;;;20.77;9.57;;;;;;;16.94;94.81;98344.09;5078497;28;20036;-77
2021/09/30 14:35:36;;;;;;;17.10;9.50;;;;;;;16.87;94.33;98339.25;5079302;28;20020;-76
2021/09/30 14:38:02;;;;;;;17.88;10.77;;;;;;;16.90;95.29;98349.81;5080337;28;20084;-76
2021/09/30 14:40:28;;;;;;;13.45;8.88;;;;;;;16.88;94.47;98340.97;5060726;28;20078;-76